createdAt,value
2022-12-22T00:00:21.230Z,10.000000
2022-12-22T00:05:22.933Z,9.571429
2022-12-22T00:10:25.960Z,8.000000
2022-12-22T00:15:28.380Z,7.800000
2022-12-22T00:20:31.568Z,7.000000
2022-12-22T00:25:34.744Z,6.733333
2022-12-22T00:30:16.815Z,6.000000
2022-12-22T00:35:19.256Z,6.266667
2022-12-22T00:40:22.073Z,7.000000
2022-12-22T00:45:24.716Z,6.400000
2022-12-22T00:50:27.441Z,4.000000
2022-12-22T00:55:29.959Z,4.400000
2022-12-22T01:00:32.478Z,6.000000
2022-12-22T01:05:35.305Z,7.066667
2022-12-22T01:10:17.609Z,10.000000
2022-12-22T01:15:20.111Z,9.733333
2022-12-22T01:20:22.963Z,9.000000
2022-12-22T01:25:25.957Z,8.200000
2022-12-22T01:30:28.294Z,5.000000
2022-12-22T01:35:32.623Z,5.600000
2022-12-22T01:40:34.739Z,8.000000
2022-12-22T01:45:17.233Z,8.000000
2022-12-22T01:50:20.238Z,8.000000
2022-12-22T01:55:23.691Z,8.000000
2022-12-22T02:00:27.445Z,8.000000
2022-12-22T02:05:29.191Z,8.000000
2022-12-22T02:10:32.737Z,8.000000
2022-12-22T02:15:34.729Z,7.200000
2022-12-22T02:20:17.052Z,5.000000
2022-12-22T02:25:19.864Z,5.000000
2022-12-22T02:30:22.484Z,5.000000
2022-12-22T02:35:24.934Z,5.000000
2022-12-22T02:40:28.246Z,5.000000
2022-12-22T02:45:31.216Z,5.000000
2022-12-22T02:50:33.798Z,5.000000
2022-12-22T02:55:16.803Z,5.533333
2022-12-22T03:00:20.821Z,7.000000
2022-12-22T03:05:22.440Z,6.785714
2022-12-22T03:10:24.818Z,6.000000
2022-12-22T03:15:27.331Z,5.600000
2022-12-22T03:20:30.763Z,4.000000
2022-12-22T03:25:32.280Z,4.266667
2022-12-22T03:30:35.460Z,5.000000
2022-12-22T03:35:18.320Z,4.733333
2022-12-22T03:40:20.420Z,4.000000
2022-12-22T03:45:23.265Z,4.642857
2022-12-22T03:50:25.753Z,7.000000
2022-12-22T03:55:28.911Z,7.200000
2022-12-22T04:00:31.381Z,8.000000
2022-12-22T04:05:33.085Z,7.466667
2022-12-22T04:10:35.697Z,6.000000
2022-12-22T04:15:18.698Z,6.266667
2022-12-22T04:20:21.560Z,7.000000
2022-12-22T04:25:24.461Z,7.214286
2022-12-22T04:30:27.143Z,8.000000
2022-12-22T04:35:31.138Z,7.400000
2022-12-22T04:40:33.441Z,5.000000
2022-12-22T04:45:16.125Z,4.733333
2022-12-22T04:50:18.531Z,4.000000
2022-12-22T04:55:20.935Z,5.066667
2022-12-22T05:00:24.269Z,8.000000
2022-12-22T05:05:27.074Z,7.800000
2022-12-22T05:10:29.610Z,7.000000
2022-12-22T05:15:32.248Z,7.000000
2022-12-22T05:20:35.210Z,7.000000
2022-12-22T05:25:18.076Z,7.000000
2022-12-22T05:30:20.804Z,7.000000
2022-12-22T05:35:23.355Z,7.214286
2022-12-22T05:40:26.105Z,8.000000
2022-12-22T05:45:28.686Z,8.000000
2022-12-22T05:50:31.490Z,8.000000
2022-12-22T05:55:34.056Z,7.200000
2022-12-22T06:00:16.780Z,5.000000
2022-12-22T06:05:19.552Z,5.533333
2022-12-22T06:10:23.371Z,7.000000
2022-12-22T06:15:26.590Z,7.000000
2022-12-22T06:20:29.742Z,7.000000
2022-12-22T06:25:32.552Z,7.266667
2022-12-22T06:30:35.676Z,8.000000
2022-12-22T06:35:18.180Z,7.200000
2022-12-22T06:40:22.531Z,5.000000
2022-12-22T06:45:24.636Z,5.428571
2022-12-22T06:50:28.633Z,7.000000
2022-12-22T06:55:29.967Z,6.400000
2022-12-22T07:00:32.694Z,4.000000
2022-12-22T07:05:35.549Z,4.000000
2022-12-22T07:10:18.484Z,4.000000
2022-12-22T07:15:22.303Z,4.000000
2022-12-22T07:20:24.051Z,4.000000
2022-12-22T07:25:26.980Z,4.200000
2022-12-22T07:30:30.149Z,5.000000
2022-12-22T07:35:32.437Z,5.266667
2022-12-22T07:40:41.215Z,6.000000
2022-12-22T07:45:17.403Z,6.000000
2022-12-22T07:50:20.813Z,6.000000
2022-12-22T07:55:24.455Z,5.785714
2022-12-22T08:00:26.935Z,5.000000
2022-12-22T08:05:30.059Z,5.000000
2022-12-22T08:10:33.760Z,5.000000
2022-12-22T08:15:16.148Z,5.000000
2022-12-22T08:20:19.381Z,5.000000
2022-12-22T08:25:21.433Z,5.533333
2022-12-22T08:30:24.060Z,7.000000
2022-12-22T08:35:27.235Z,6.200000
2022-12-22T08:40:30.279Z,3.000000
2022-12-22T08:45:32.794Z,3.800000
2022-12-22T08:50:35.398Z,6.000000
2022-12-22T08:55:18.942Z,6.000000
2022-12-22T09:00:21.943Z,6.000000
2022-12-22T09:05:23.626Z,5.571429
2022-12-22T09:10:27.234Z,4.000000
2022-12-22T09:15:29.412Z,4.400000
2022-12-22T09:20:32.979Z,6.000000
2022-12-22T09:25:34.979Z,5.733333
2022-12-22T09:30:17.336Z,5.000000
2022-12-22T09:35:19.694Z,5.266667
2022-12-22T09:40:22.634Z,6.000000
2022-12-22T09:45:25.441Z,5.800000
2022-12-22T09:50:28.098Z,5.000000
2022-12-22T09:55:31.135Z,5.600000
2022-12-22T10:00:33.898Z,8.000000
2022-12-22T10:05:16.341Z,7.200000
2022-12-22T10:10:19.526Z,5.000000
2022-12-22T10:15:22.537Z,5.214286
2022-12-22T10:20:25.667Z,6.000000
2022-12-22T10:25:39.922Z,6.000000
2022-12-22T10:30:31.926Z,6.000000
2022-12-22T10:35:34.421Z,5.733333
2022-12-22T10:40:17.413Z,5.000000
2022-12-22T10:45:19.982Z,4.733333
2022-12-22T10:50:22.992Z,4.000000
2022-12-22T10:55:26.839Z,4.200000
2022-12-22T11:00:29.443Z,5.000000
2022-12-22T11:05:32.519Z,4.733333
2022-12-22T11:10:36.022Z,4.000000
2022-12-22T11:15:24.038Z,4.266667
2022-12-22T11:20:20.194Z,5.000000
2022-12-22T11:25:24.011Z,5.000000
2022-12-22T11:30:26.662Z,5.000000
2022-12-22T11:35:31.041Z,4.800000
2022-12-22T11:40:33.683Z,4.000000
2022-12-22T11:45:42.766Z,4.000000
2022-12-22T11:50:59.913Z,4.000000
2022-12-22T11:55:21.014Z,4.000000
2022-12-22T12:00:32.645Z,4.000000
2022-12-22T12:05:27.236Z,4.000000
2022-12-22T12:10:28.565Z,4.000000
2022-12-22T12:15:31.753Z,4.000000
2022-12-22T12:20:34.914Z,4.000000
2022-12-22T12:25:22.418Z,4.266667
2022-12-22T12:30:38.460Z,5.000000
2022-12-22T12:35:24.743Z,4.785714
2022-12-22T12:40:26.903Z,4.000000
2022-12-22T12:45:29.560Z,3.400000
2022-12-22T12:50:33.018Z,1.000000
2022-12-22T12:55:35.330Z,1.800000
2022-12-22T13:00:18.259Z,4.000000
2022-12-22T13:05:21.920Z,4.266667
2022-12-22T13:10:24.113Z,5.000000
2022-12-22T13:15:26.809Z,4.800000
2022-12-22T13:20:31.270Z,4.000000
2022-12-22T13:25:34.333Z,4.266667
2022-12-22T13:30:17.378Z,5.000000
2022-12-22T13:35:41.423Z,5.000000
2022-12-22T13:40:24.696Z,5.000000
2022-12-22T13:45:27.470Z,5.200000
2022-12-22T13:50:31.217Z,6.000000
2022-12-22T13:55:34.149Z,5.733333
2022-12-22T14:00:16.624Z,5.000000
2022-12-22T14:05:20.214Z,5.533333
2022-12-22T14:10:22.432Z,7.000000
2022-12-22T14:15:25.305Z,6.800000
2022-12-22T14:20:28.809Z,6.000000
2022-12-22T14:25:32.921Z,6.200000
2022-12-22T14:30:38.492Z,7.000000
2022-12-22T14:35:18.397Z,7.533333
2022-12-22T14:40:21.363Z,9.000000
2022-12-22T14:45:24.588Z,9.000000
2022-12-22T14:50:27.248Z,9.000000
2022-12-22T14:55:29.990Z,9.000000
2022-12-22T15:00:33.120Z,9.000000
2022-12-22T15:05:36.322Z,9.000000
2022-12-22T15:10:18.940Z,9.000000
2022-12-22T15:15:21.711Z,9.000000
2022-12-22T15:20:24.769Z,9.400000
2022-12-22T15:25:27.902Z,9.666667
2022-12-22T15:30:30.432Z,9.800000
2022-12-22T15:35:33.629Z,10.733333
2022-12-22T15:40:16.043Z,9.400000
2022-12-22T15:45:18.584Z,8.000000
2022-12-22T15:50:21.184Z,10.000000
2022-12-22T15:55:23.586Z,13.000000
2022-12-22T16:00:27.603Z,12.000000
2022-12-22T16:05:29.177Z,10.000000
2022-12-22T16:10:32.875Z,9.000000
2022-12-22T16:15:34.823Z,7.000000
2022-12-22T16:20:17.382Z,6.600000
2022-12-22T16:25:20.398Z,6.000000
2022-12-22T16:30:23.283Z,6.000000
2022-12-22T16:35:26.187Z,6.000000
2022-12-22T16:40:28.639Z,5.333333
2022-12-22T16:45:31.312Z,4.000000
2022-12-22T16:50:34.774Z,4.000000
2022-12-22T16:55:18.718Z,4.000000
2022-12-22T17:00:21.791Z,4.000000
2022-12-22T17:05:25.151Z,4.000000
2022-12-22T17:10:28.601Z,4.333333
2022-12-22T17:15:32.642Z,5.000000
2022-12-22T17:20:34.670Z,6.000000
2022-12-22T17:25:17.243Z,8.000000
2022-12-22T17:30:19.922Z,7.600000
2022-12-22T17:35:22.671Z,7.000000
2022-12-22T17:40:25.423Z,6.333333
2022-12-22T17:45:28.147Z,5.000000
2022-12-22T17:50:31.007Z,5.666667
2022-12-22T17:56:07.601Z,7.000000
2022-12-22T18:00:18.444Z,7.800000
2022-12-22T18:05:20.567Z,9.000000
2022-12-22T18:10:23.454Z,8.285714
2022-12-22T18:15:26.513Z,7.000000
2022-12-22T18:20:29.912Z,7.666667
2022-12-22T18:25:32.710Z,9.000000
2022-12-22T18:30:35.370Z,8.666667
2022-12-22T18:35:17.730Z,8.000000
2022-12-22T18:40:24.668Z,8.000000
2022-12-22T18:45:23.846Z,8.000000
2022-12-22T18:50:26.517Z,6.666667
2022-12-22T18:55:29.438Z,4.000000
2022-12-22T19:00:33.336Z,5.000000
2022-12-22T19:05:34.889Z,7.000000
2022-12-22T19:10:17.743Z,6.200000
2022-12-22T19:15:20.785Z,5.000000
2022-12-22T19:20:23.681Z,5.714286
2022-12-22T19:25:26.966Z,7.000000
2022-12-22T19:30:29.736Z,7.000000
2022-12-22T19:35:32.816Z,7.000000
2022-12-22T19:40:35.614Z,8.000000
2022-12-22T19:45:21.731Z,10.000000
2022-12-22T19:50:20.824Z,8.800000
2022-12-22T19:55:23.387Z,7.000000
2022-12-22T20:00:27.247Z,6.666667
2022-12-22T20:05:29.826Z,6.000000
2022-12-22T20:10:32.015Z,5.333333
2022-12-22T20:15:35.219Z,4.000000
2022-12-22T20:20:17.747Z,4.000000
2022-12-22T20:25:20.618Z,4.000000
2022-12-22T20:30:23.219Z,4.714286
2022-12-22T20:35:26.904Z,6.000000
2022-12-22T20:40:30.809Z,6.333333
2022-12-22T20:45:33.207Z,7.000000
2022-12-22T20:50:16.027Z,7.800000
2022-12-22T20:55:19.340Z,9.000000
2022-12-22T21:00:21.854Z,8.200000
2022-12-22T21:05:24.508Z,7.000000
2022-12-22T21:10:27.636Z,6.666667
2022-12-22T21:15:30.476Z,6.000000
2022-12-22T21:20:33.916Z,6.333333
2022-12-22T21:25:15.929Z,7.000000
2022-12-22T21:30:18.431Z,5.800000
2022-12-22T21:35:21.458Z,4.000000
2022-12-22T21:40:24.500Z,4.000000
2022-12-22T21:45:27.753Z,4.000000
2022-12-22T21:50:31.899Z,4.666667
2022-12-22T21:55:35.017Z,6.000000
2022-12-22T22:00:18.282Z,5.200000
2022-12-22T22:05:21.636Z,4.000000
2022-12-22T22:10:24.876Z,5.071429
2022-12-22T22:15:28.726Z,7.000000
2022-12-22T22:20:30.248Z,6.666667
2022-12-22T22:25:34.168Z,6.000000
2022-12-22T22:30:15.996Z,5.333333
2022-12-22T22:35:19.389Z,4.000000
2022-12-22T22:40:22.624Z,4.714286
2022-12-22T22:45:25.204Z,6.000000
2022-12-22T22:50:27.829Z,6.333333
2022-12-22T22:55:32.484Z,7.000000
2022-12-22T23:00:36.029Z,6.000000
2022-12-22T23:05:22.882Z,4.000000
2022-12-22T23:10:23.233Z,5.071429
2022-12-22T23:15:26.811Z,7.000000
2022-12-22T23:20:29.267Z,7.666667
2022-12-22T23:25:32.518Z,9.000000
2022-12-22T23:30:16.006Z,8.666667
2022-12-22T23:35:19.669Z,8.000000
2022-12-22T23:40:51.166Z,6.928571
2022-12-22T23:45:25.303Z,5.000000
2022-12-22T23:50:29.247Z,4.666667
2022-12-22T23:55:34.340Z,4.000000
